Terminal Aerodrome Forecast
Issued by NWS New Orleans/Baton Rouge, LA

Home | Current Version | Previous Version | Text Only | Print | Product List | Glossary On
Versions: 1 2 3 4 5 6 7 8 9 10 11 12 13 14 15 16 17 18 19 20 21 22 23 24 25 26 27 28 29 30 31 32
000
FTUS44 KLIX 101743 AAB
TAFNEW
TAF AMD
KNEW 101743Z 1018/1118 33013G22KT P6SM -SHRA SCT008 OVC017
     FM102000 01015G25KT 5SM -SHRA OVC010
     FM110400 02022G35KT P6SM -RA OVC015
     FM111200 03018G30KT P6SM OVC008
     FM111700 03017G28KT P6SM BKN050=

USA.gov is the U.S. government's official web portal to all federal, state and local government web resources and services.